To NAV CANADA Home Page Login to a new session Search on AWWS site Feedback and Comments Disclaimer Vers la page française équivalente Tips FAQ What's new on the site To the Forecasts and Observations / NOTAM section To "File a Flight Plan" website Publications and other links Update of the User's profile FIC Telephone Numbers My Weather Data Folder Route Weather Data Regional Weather Data Local Weather Data To the Forecasts and Observations / NOTAM section
Request Generated 04/24/2014 at 08:30:30 UTC . Weather information available at that time is displayed.

METAR/TAF

WINDSOR/ON    

METAR CYQG 240800Z 00000KT 15SM FEW170 02/M07 A3014 RMK AC2 SLP212=
METAR CYQG 240700Z 00000KT 15SM OVC200 04/M08 A3013 RMK CS8 SLP208=
METAR CYQG 240600Z 10003KT 15SM OVC190 04/M05 A3013 RMK AS8 SLP208=

TAF CYQG 240538Z 2406/2506 09005KT P6SM OVC200
BECMG 2414/2416 12008KT BKN100 OVC180
FM242300 10012KT P6SM FEW100 BKN180
RMK NXT FCST BY 241200Z=
Your time UTC time
Weather data provided by Environment Canada and NAV CANADA